Time;durP1;ratioP1;P1;durP2;ratioP2;P2;SDS_P1;SDS_P2;PMS_P1;PMS_P2;Temp;Humidity;BMP_temperature;BMP_pressure;BME280_temperature;BME280_humidity;BME280_pressure;Samples;Min_cycle;Max_cycle;Signal;HPM_P1;HPM_P2
2022/08/15 00:02:00;;;;;;;6.35;3.85;;;;;;;22.14;63.38;95329.19;5037561;28;20205;-71
2022/08/15 00:04:27;;;;;;;5.88;4.07;;;;;;;22.15;64.46;95315.50;5036529;28;20420;-71
2022/08/15 00:06:54;;;;;;;6.90;3.70;;;;;;;22.06;64.70;95319.81;5037800;28;20575;-71
2022/08/15 00:09:23;;;;;;;5.05;3.40;;;;;;;22.08;63.64;95306.13;5037399;28;20243;-71
2022/08/15 00:11:53;;;;;;;7.15;3.85;;;;;;;22.04;63.85;95313.88;5037713;28;21025;-71
2022/08/15 00:14:24;;;;;;;4.70;3.55;;;;;;;22.15;64.68;95306.66;5036940;28;20235;-70
2022/08/15 00:16:50;;;;;;;5.70;3.85;;;;;;;22.02;64.50;95315.25;5037289;28;20212;-71
2022/08/15 00:19:20;;;;;;;9.75;3.72;;;;;;;22.06;64.35;95311.75;5037763;28;20209;-71
2022/08/15 00:21:50;;;;;;;7.45;3.75;;;;;;;22.11;64.80;95314.44;5037995;28;20662;-71
2022/08/15 00:24:18;;;;;;;8.45;4.30;;;;;;;22.01;65.43;95320.88;5037091;28;20236;-71
2022/08/15 00:26:48;;;;;;;7.50;3.47;;;;;;;22.04;64.97;95324.63;5037006;28;20205;-70
2022/08/15 00:29:15;;;;;;;5.00;3.78;;;;;;;21.89;66.03;95326.50;5037803;28;20251;-71
2022/08/15 00:31:42;;;;;;;7.88;3.70;;;;;;;21.77;65.68;95325.19;5037158;28;20205;-71
2022/08/15 00:34:09;;;;;;;5.82;3.80;;;;;;;21.88;66.18;95322.25;5036072;28;20221;-71
2022/08/15 00:36:36;;;;;;;8.80;3.63;;;;;;;21.92;66.08;95319.81;5037273;28;20204;-70
2022/08/15 00:39:05;;;;;;;8.68;3.88;;;;;;;22.00;66.33;95319.28;5037593;28;20205;-71
2022/08/15 00:41:41;;;;;;;5.07;3.40;;;;;;;21.87;66.61;95307.22;5036093;28;20205;-71
2022/08/15 00:44:13;;;;;;;5.47;3.80;;;;;;;21.95;65.97;95313.91;5036152;28;20333;-71
2022/08/15 00:46:41;;;;;;;7.47;3.20;;;;;;;21.94;65.49;95315.78;5037600;28;20306;-71
2022/08/15 00:49:08;;;;;;;5.53;3.70;;;;;;;21.90;65.02;95319.28;5033225;28;20208;-71
2022/08/15 00:51:37;;;;;;;6.63;3.60;;;;;;;21.96;64.90;95326.22;5036645;28;20316;-70
2022/08/15 00:54:08;;;;;;;4.70;3.20;;;;;;;22.02;65.24;95331.34;5036423;28;20236;-70
2022/08/15 00:56:41;;;;;;;7.68;3.55;;;;;;;22.02;65.22;95334.03;5036772;28;20209;-70
2022/08/15 00:59:12;;;;;;;7.47;3.35;;;;;;;21.96;65.66;95332.41;5036268;28;20665;-70
2022/08/15 01:01:39;;;;;;;4.88;3.30;;;;;;;21.79;65.52;95342.63;5036947;28;20253;-70
2022/08/15 01:04:08;;;;;;;5.78;3.60;;;;;;;21.84;64.66;95331.06;5037328;28;20283;-70
2022/08/15 01:06:37;;;;;;;9.00;3.65;;;;;;;21.71;65.62;95328.91;5040241;28;20209;-71
2022/08/15 01:09:05;;;;;;;6.30;3.40;;;;;;;21.79;65.14;95331.06;5041071;28;20282;-70
2022/08/15 01:11:37;;;;;;;9.48;3.10;;;;;;;21.90;63.32;95332.69;5040774;28;20209;-70
2022/08/15 01:14:06;;;;;;;7.65;3.45;;;;;;;21.95;63.16;95330.81;5039953;28;20228;-71
2022/08/15 01:16:38;;;;;;;5.25;3.50;;;;;;;22.09;63.96;95332.66;5040289;28;20313;-71
2022/08/15 01:19:10;;;;;;;7.80;3.33;;;;;;;22.05;65.31;95336.97;5041111;28;20209;-70
2022/08/15 01:21:39;;;;;;;6.25;3.50;;;;;;;21.90;63.74;95338.06;5040601;28;21333;-70
2022/08/15 01:24:16;;;;;;;6.03;3.67;;;;;;;22.00;64.33;95333.50;5039496;28;20220;-70
2022/08/15 01:26:44;;;;;;;7.15;3.25;;;;;;;21.95;64.80;95332.69;5040666;28;20201;-70
2022/08/15 01:29:12;;;;;;;6.15;3.35;;;;;;;21.83;64.87;95342.88;5040702;28;20209;-70
2022/08/15 01:31:38;;;;;;;5.07;3.22;;;;;;;21.86;64.71;95342.34;5040360;28;20201;-71
2022/08/15 01:34:05;;;;;;;4.55;3.47;;;;;;;21.80;66.12;95338.03;5039774;28;21297;-71
2022/08/15 01:36:32;;;;;;;6.18;3.47;;;;;;;21.92;64.26;95338.56;5040316;28;20240;-71
2022/08/15 01:39:06;;;;;;;6.63;3.45;;;;;;;21.92;64.14;95336.72;5039883;28;20205;-70
2022/08/15 01:41:40;;;;;;;7.28;3.60;;;;;;;21.82;65.71;95347.44;5040392;28;20216;-71
2022/08/15 01:44:14;;;;;;;10.38;3.90;;;;;;;21.81;65.82;95355.75;5039845;28;20225;-71
2022/08/15 01:46:48;;;;;;;5.30;3.63;;;;;;;21.69;65.56;95349.81;5039904;28;20236;-71
2022/08/15 01:49:19;;;;;;;8.60;3.70;;;;;;;21.72;65.82;95347.44;5040223;28;20750;-71
2022/08/15 01:51:45;;;;;;;9.15;3.75;;;;;;;21.69;66.50;95352.50;5040538;28;20224;-71
2022/08/15 01:54:14;;;;;;;6.63;3.60;;;;;;;21.73;66.60;95351.72;5039602;28;20225;-71
2022/08/15 01:56:43;;;;;;;7.95;3.63;;;;;;;21.70;67.08;95348.75;5039831;28;20225;-71
2022/08/15 01:59:15;;;;;;;5.43;3.28;;;;;;;21.74;67.20;95349.84;5039883;28;20209;-71
2022/08/15 02:01:45;;;;;;;7.38;3.50;;;;;;;21.61;68.27;95347.69;5039573;28;20206;-71
2022/08/15 02:04:12;;;;;;;6.60;3.92;;;;;;;21.46;68.80;95342.28;5037789;28;20239;-70
2022/08/15 02:06:40;;;;;;;5.65;3.60;;;;;;;21.47;67.22;95349.22;5040196;28;20197;-71
2022/08/15 02:09:09;;;;;;;7.82;3.53;;;;;;;21.56;67.39;95350.34;5035867;28;20209;-71
2022/08/15 02:11:35;;;;;;;5.00;3.53;;;;;;;21.40;66.83;95348.69;5039287;28;20216;-70
2022/08/15 02:14:02;;;;;;;6.05;3.45;;;;;;;21.54;66.47;95349.81;5039335;28;20232;-71
2022/08/15 02:16:35;;;;;;;6.90;3.75;;;;;;;21.65;66.26;95346.06;5039372;28;20225;-71
2022/08/15 02:19:01;;;;;;;11.38;3.80;;;;;;;21.65;65.87;95362.16;5040350;28;20236;-71
2022/08/15 02:21:28;;;;;;;4.97;3.17;;;;;;;21.51;66.70;95361.06;5039478;28;20650;-71
2022/08/15 02:23:56;;;;;;;7.60;3.78;;;;;;;21.74;65.54;95361.38;5038607;28;20217;-70
2022/08/15 02:26:22;;;;;;;7.88;3.70;;;;;;;21.75;65.38;95362.19;5039512;28;20259;-70
2022/08/15 02:28:50;;;;;;;6.13;3.45;;;;;;;21.72;65.86;95360.03;5039223;28;20750;-70
2022/08/15 02:31:26;;;;;;;5.05;3.30;;;;;;;21.83;65.40;95364.31;5038804;28;20569;-71
2022/08/15 02:33:56;;;;;;;7.28;3.80;;;;;;;21.79;65.67;95369.44;5038703;28;20225;-70
2022/08/15 02:36:24;;;;;;;7.43;4.50;;;;;;;21.71;66.01;95361.09;5038908;28;20224;-71
2022/08/15 02:38:52;;;;;;;6.68;3.50;;;;;;;21.74;65.56;95368.59;5038801;28;20224;-70
2022/08/15 02:41:21;;;;;;;9.25;3.17;;;;;;;21.82;66.10;95368.09;5038776;28;20205;-71
2022/08/15 02:43:49;;;;;;;4.70;3.40;;;;;;;21.72;65.84;95378.81;5038525;28;20304;-71
2022/08/15 02:46:17;;;;;;;8.65;3.75;;;;;;;21.85;65.33;95372.94;5038995;28;20205;-71
2022/08/15 02:48:46;;;;;;;4.95;3.50;;;;;;;21.77;65.98;95363.53;5038775;28;20236;-70
2022/08/15 02:51:15;;;;;;;7.13;4.03;;;;;;;21.85;65.71;95359.50;5039134;28;20212;-70
2022/08/15 02:53:44;;;;;;;6.10;3.38;;;;;;;21.72;65.69;95358.16;5035946;28;20216;-71
2022/08/15 02:56:11;;;;;;;7.22;3.42;;;;;;;21.76;65.63;95353.88;5038833;28;20279;-71
2022/08/15 02:58:38;;;;;;;5.22;3.63;;;;;;;21.63;66.16;95356.28;5038843;28;20205;-70
2022/08/15 03:01:08;;;;;;;4.70;3.15;;;;;;;21.73;66.00;95358.97;5038709;28;20545;-71
2022/08/15 03:03:38;;;;;;;9.13;3.88;;;;;;;21.79;66.10;95364.06;5037667;28;20748;-71
2022/08/15 03:06:07;;;;;;;17.35;3.38;;;;;;;21.80;66.50;95362.19;5038932;28;20311;-71
2022/08/15 03:08:35;;;;;;;5.25;3.50;;;;;;;21.87;66.39;95363.53;5038087;28;20633;-71
2022/08/15 03:11:03;;;;;;;7.13;3.80;;;;;;;21.77;67.08;95362.72;5038818;28;20209;-71
2022/08/15 03:13:31;;;;;;;6.05;3.40;;;;;;;21.67;67.56;95360.03;5037562;28;20213;-71
2022/08/15 03:15:58;;;;;;;5.82;3.75;;;;;;;21.63;67.89;95359.75;5037643;28;21025;-70
2022/08/15 03:18:27;;;;;;;6.88;3.80;;;;;;;21.66;67.99;95355.72;5038050;28;20669;-71
2022/08/15 03:20:54;;;;;;;8.13;3.60;;;;;;;21.49;68.32;95363.97;5039796;28;20665;-70
2022/08/15 03:23:22;;;;;;;6.65;3.80;;;;;;;21.49;68.47;95363.19;5037501;28;20209;-70
2022/08/15 03:25:53;;;;;;;6.30;3.50;;;;;;;21.59;67.20;95353.31;5037401;28;20229;-71
2022/08/15 03:28:21;;;;;;;9.35;3.63;;;;;;;21.56;66.83;95364.56;5037795;28;20209;-71
2022/08/15 03:30:48;;;;;;;5.97;3.72;;;;;;;21.60;66.67;95370.19;5038240;28;20213;-71
2022/08/15 03:33:15;;;;;;;6.05;3.47;;;;;;;21.41;67.42;95360.19;5037492;28;20582;-71
2022/08/15 03:35:45;;;;;;;4.43;3.20;;;;;;;21.61;67.27;95356.53;5038380;28;20228;-70
2022/08/15 03:38:12;;;;;;;6.18;3.38;;;;;;;21.57;67.39;95365.38;5038143;28;20205;-70
2022/08/15 03:40:39;;;;;;;6.85;3.25;;;;;;;21.58;66.39;95375.03;5037903;28;20248;-70
2022/08/15 03:43:11;;;;;;;5.82;3.03;;;;;;;21.58;66.89;95380.41;5037093;28;20217;-70
2022/08/15 03:45:38;;;;;;;6.97;3.08;;;;;;;21.65;66.54;95378.25;5037847;28;20231;-70
2022/08/15 03:48:06;;;;;;;4.05;2.72;;;;;;;21.51;67.01;95382.50;5037687;28;20205;-71
2022/08/15 03:50:33;;;;;;;7.88;2.78;;;;;;;21.59;66.66;95380.13;5037931;28;20324;-71
2022/08/15 03:53:02;;;;;;;6.38;3.35;;;;;;;21.55;67.00;95379.03;5037033;28;20225;-71
2022/08/15 03:55:32;;;;;;;3.80;2.80;;;;;;;21.64;66.65;95385.50;5037397;28;20229;-71
2022/08/15 03:57:59;;;;;;;5.30;3.13;;;;;;;21.55;66.56;95384.41;5037611;28;20217;-70
2022/08/15 04:00:29;;;;;;;5.40;3.10;;;;;;;21.61;66.96;95387.91;5037861;28;20212;-71
2022/08/15 04:03:05;;;;;;;5.72;3.42;;;;;;;21.69;67.02;95396.25;5036995;28;20201;-71
2022/08/15 04:05:31;;;;;;;3.65;2.50;;;;;;;21.49;66.86;95385.41;5037130;28;20221;-70
2022/08/15 04:07:58;;;;;;;5.80;2.80;;;;;;;21.50;67.48;95396.97;5037542;28;20212;-71
2022/08/15 04:10:24;;;;;;;6.55;2.85;;;;;;;21.39;67.73;95394.53;5037941;28;20209;-71
2022/08/15 04:12:52;;;;;;;6.45;3.47;;;;;;;21.41;68.43;95398.56;5036875;28;20209;-70
2022/08/15 04:15:18;;;;;;;6.47;2.67;;;;;;;21.40;67.96;95388.06;5037799;28;20221;-70
2022/08/15 04:17:47;;;;;;;6.05;2.83;;;;;;;21.59;67.61;95388.16;5037344;28;20205;-70
2022/08/15 04:20:14;;;;;;;3.00;2.30;;;;;;;21.64;67.03;95387.38;5037087;28;20205;-71
2022/08/15 04:22:42;;;;;;;4.72;2.60;;;;;;;21.70;66.88;95384.44;5036480;28;20584;-70
2022/08/15 04:25:11;;;;;;;5.30;2.28;;;;;;;21.61;67.45;95399.44;5036765;28;20225;-70
2022/08/15 04:27:38;;;;;;;6.32;2.65;;;;;;;21.63;67.73;95397.28;5036301;28;20205;-71
2022/08/15 04:30:07;;;;;;;7.20;2.53;;;;;;;21.54;68.39;95398.88;5037755;28;20212;-71
2022/08/15 04:32:33;;;;;;;2.83;2.28;;;;;;;21.57;67.86;95392.19;5037418;28;20572;-70
2022/08/15 04:35:02;;;;;;;6.15;2.63;;;;;;;21.58;67.85;95399.97;5036558;28;20252;-71
2022/08/15 04:37:29;;;;;;;4.95;2.50;;;;;;;21.62;67.73;95398.34;5036603;28;20228;-70
2022/08/15 04:39:56;;;;;;;3.80;2.05;;;;;;;21.68;67.58;95393.81;5037766;28;20201;-71
2022/08/15 04:42:24;;;;;;;5.38;2.58;;;;;;;21.65;67.86;95405.06;5036449;28;20209;-70
2022/08/15 04:44:52;;;;;;;3.20;1.80;;;;;;;21.56;68.22;95403.97;5036964;28;20224;-70
2022/08/15 04:47:18;;;;;;;4.28;1.98;;;;;;;21.63;67.95;95410.69;5037059;28;20342;-70
2022/08/15 04:49:45;;;;;;;3.67;2.35;;;;;;;21.71;67.87;95410.16;5037076;28;20209;-70
2022/08/15 04:52:16;;;;;;;4.13;2.33;;;;;;;21.68;68.45;95415.28;5036674;28;20204;-71
2022/08/15 04:54:43;;;;;;;3.25;2.40;;;;;;;21.59;69.05;95409.63;5037281;28;20229;-71
2022/08/15 04:57:10;;;;;;;4.35;2.50;;;;;;;21.49;69.55;95406.06;5036747;28;20229;-70
2022/08/15 04:59:39;;;;;;;4.18;2.38;;;;;;;21.59;69.20;95401.56;5036706;28;20209;-71
2022/08/15 05:02:08;;;;;;;3.42;2.30;;;;;;;21.58;69.97;95408.00;5037100;28;20296;-71
2022/08/15 05:04:35;;;;;;;4.25;2.20;;;;;;;21.66;69.43;95412.03;5036772;28;20283;-70
2022/08/15 05:07:02;;;;;;;6.90;2.22;;;;;;;21.65;69.60;95407.75;5036507;28;20200;-70
2022/08/15 05:09:29;;;;;;;4.63;2.75;;;;;;;21.65;70.11;95405.88;5036627;28;20205;-70
2022/08/15 05:11:56;;;;;;;4.75;2.17;;;;;;;21.49;71.09;95408.75;5036842;28;20216;-70
2022/08/15 05:14:23;;;;;;;3.70;2.20;;;;;;;21.55;70.85;95413.09;5035653;28;20489;-71
2022/08/15 05:16:49;;;;;;;5.10;2.40;;;;;;;21.39;71.97;95406.03;5036277;28;20231;-70
2022/08/15 05:19:16;;;;;;;2.17;1.80;;;;;;;21.45;71.79;95407.69;5036645;28;20205;-70
2022/08/15 05:21:42;;;;;;;5.03;2.60;;;;;;;21.45;72.47;95413.03;5036932;28;20213;-70
2022/08/15 05:24:09;;;;;;;4.83;2.67;;;;;;;21.32;73.76;95410.84;5034980;28;20462;-71
2022/08/15 05:26:38;;;;;;;3.92;2.50;;;;;;;21.49;73.10;95406.06;5037070;28;20205;-70
2022/08/15 05:29:06;;;;;;;4.80;2.40;;;;;;;21.51;73.30;95410.13;5037278;28;20287;-71
2022/08/15 05:31:32;;;;;;;5.80;2.13;;;;;;;21.29;74.43;95415.94;5036259;28;20201;-71
2022/08/15 05:34:00;;;;;;;4.20;2.20;;;;;;;21.26;74.84;95409.22;5035978;28;20933;-70
2022/08/15 05:36:27;;;;;;;5.07;2.40;;;;;;;21.20;75.78;95420.97;5036881;28;20225;-70
2022/08/15 05:38:58;;;;;;;5.22;2.30;;;;;;;21.36;76.30;95419.97;5035878;28;20674;-71
2022/08/15 05:41:31;;;;;;;3.42;2.33;;;;;;;21.43;77.55;95423.19;5036540;28;20244;-70
2022/08/15 05:44:09;;;;;;;3.65;2.10;;;;;;;21.18;79.39;95425.81;5037356;28;20229;-70
2022/08/15 05:46:44;;;;;;;6.10;2.45;;;;;;;21.25;79.89;95420.19;5037410;28;20197;-70
2022/08/15 05:49:24;;;;;;;3.15;2.20;;;;;;;21.18;80.23;95417.75;5037003;28;20197;-71
2022/08/15 05:52:02;;;;;;;4.57;2.50;;;;;;;21.12;80.21;95424.16;5040519;28;20205;-71
2022/08/15 05:54:37;;;;;;;6.03;2.20;;;;;;;20.87;81.62;95417.88;5038678;28;20232;-71
2022/08/15 05:57:09;;;;;;;6.03;2.08;;;;;;;21.03;80.58;95431.09;5040571;28;20239;-71
2022/08/15 05:59:48;;;;;;;5.15;2.22;;;;;;;21.07;80.35;95437.53;5040815;28;20578;-71
2022/08/15 06:02:22;;;;;;;4.72;2.38;;;;;;;20.91;81.55;95446.56;5040461;28;20220;-70
2022/08/15 06:04:53;;;;;;;2.97;2.10;;;;;;;20.86;81.49;95454.56;5040903;28;21245;-70
2022/08/15 06:07:21;;;;;;;3.25;2.10;;;;;;;20.82;81.59;95446.50;5040690;28;21203;-70
2022/08/15 06:09:51;;;;;;;6.38;2.40;;;;;;;20.83;81.59;95444.34;5040590;28;20201;-70
2022/08/15 06:12:25;;;;;;;3.92;2.17;;;;;;;20.76;82.22;95447.53;5038681;28;20200;-70
2022/08/15 06:14:59;;;;;;;4.50;2.30;;;;;;;20.82;82.21;95451.84;5037962;28;20236;-70
2022/08/15 06:17:33;;;;;;;3.65;2.10;;;;;;;20.71;83.06;95444.78;5038713;28;20346;-70
2022/08/15 06:20:03;;;;;;;6.22;2.97;;;;;;;20.71;83.59;95442.91;5039239;28;20205;-70
2022/08/15 06:22:50;;;;;;;3.78;2.20;;;;;;;20.86;82.98;95443.84;5038496;28;20201;-70
2022/08/15 06:25:25;;;;;;;3.92;2.50;;;;;;;20.71;83.62;95439.41;5039269;28;20605;-70
2022/08/15 06:28:13;;;;;;;6.60;2.50;;;;;;;20.94;82.39;95435.31;5038542;28;20205;-70
2022/08/15 06:30:47;;;;;;;4.28;2.40;;;;;;;21.11;81.74;95438.63;5038505;28;20252;-70
2022/08/15 06:33:26;;;;;;;6.40;2.42;;;;;;;21.09;82.50;95432.72;5038286;28;20209;-70
2022/08/15 06:36:00;;;;;;;3.20;2.30;;;;;;;21.07;82.07;95432.16;5038899;28;20705;-70
2022/08/15 06:38:39;;;;;;;5.57;2.60;;;;;;;21.04;82.52;95434.56;5038811;28;20201;-70
2022/08/15 06:41:12;;;;;;;4.18;2.60;;;;;;;21.22;82.25;95431.41;5038893;28;20673;-70
2022/08/15 06:43:39;;;;;;;5.38;2.80;;;;;;;21.11;81.92;95435.13;5037608;28;20217;-70
2022/08/15 06:46:08;;;;;;;6.88;2.50;;;;;;;21.49;81.40;95431.00;5038525;28;20828;-71
2022/08/15 06:48:37;;;;;;;7.32;2.25;;;;;;;21.26;81.31;95437.91;5038350;28;20231;-71
2022/08/15 06:51:07;;;;;;;5.03;2.25;;;;;;;21.17;81.44;95434.09;5038742;28;20216;-71
2022/08/15 06:53:37;;;;;;;5.50;2.50;;;;;;;21.11;81.52;95430.56;5037613;28;20220;-71
2022/08/15 06:56:12;;;;;;;5.38;2.63;;;;;;;21.23;81.89;95433.88;5037657;28;20216;-71
2022/08/15 06:58:48;;;;;;;4.43;2.20;;;;;;;21.17;81.34;95429.53;5038665;28;20200;-71
2022/08/15 07:01:28;;;;;;;3.95;2.08;;;;;;;21.12;81.59;95428.72;5038326;28;20209;-71
2022/08/15 07:04:06;;;;;;;5.25;2.50;;;;;;;21.53;80.05;95423.28;5036972;28;20298;-71
2022/08/15 07:06:44;;;;;;;5.05;2.45;;;;;;;21.21;80.72;95425.28;5038398;28;20224;-71
2022/08/15 07:09:25;;;;;;;5.63;2.53;;;;;;;21.55;79.56;95421.16;5037425;28;20598;-71
2022/08/15 07:11:58;;;;;;;3.50;2.20;;;;;;;21.70;79.51;95421.16;5038317;28;20216;-71
2022/08/15 07:14:30;;;;;;;4.78;2.10;;;;;;;21.65;79.18;95410.44;5037856;28;20344;-71
2022/08/15 07:17:04;;;;;;;4.97;2.58;;;;;;;21.69;79.81;95416.88;5038487;28;20232;-71
2022/08/15 07:19:31;;;;;;;5.50;2.58;;;;;;;21.57;79.70;95402.91;5037230;28;20207;-71
2022/08/15 07:21:58;;;;;;;5.38;2.65;;;;;;;21.45;80.16;95415.72;5036522;28;20303;-71
2022/08/15 07:24:28;;;;;;;4.43;2.75;;;;;;;21.67;79.12;95414.44;5037236;28;20236;-71
2022/08/15 07:26:59;;;;;;;3.85;2.40;;;;;;;21.67;79.60;95419.03;5037868;28;20293;-71
2022/08/15 07:29:29;;;;;;;4.72;2.50;;;;;;;21.93;78.60;95418.00;5037044;28;20274;-71
2022/08/15 07:32:03;;;;;;;5.25;2.65;;;;;;;22.13;77.66;95418.81;5037260;28;20213;-71
2022/08/15 07:34:30;;;;;;;4.68;2.65;;;;;;;22.07;77.72;95415.34;5036835;28;20931;-71
2022/08/15 07:37:00;;;;;;;4.28;2.67;;;;;;;22.03;77.54;95418.81;5037476;28;20674;-71
2022/08/15 07:39:34;;;;;;;4.38;2.60;;;;;;;22.30;77.19;95414.84;5037657;28;20627;-71
2022/08/15 07:42:11;;;;;;;6.22;2.60;;;;;;;22.36;76.13;95415.63;5037553;28;20209;-71
2022/08/15 07:44:37;;;;;;;4.63;2.55;;;;;;;22.06;77.27;95419.09;5036774;28;20228;-71
2022/08/15 07:47:20;;;;;;;4.80;2.70;;;;;;;22.25;77.20;95412.13;5037531;28;20205;-71
2022/08/15 07:49:58;;;;;;;3.15;2.17;;;;;;;22.38;77.98;95427.72;5037039;28;20316;-71
2022/08/15 07:52:25;;;;;;;4.28;2.65;;;;;;;22.28;76.30;95425.03;5036332;28;20237;-71
2022/08/15 07:54:55;;;;;;;4.07;2.53;;;;;;;22.43;76.39;95422.34;5037418;28;20229;-71
2022/08/15 07:57:26;;;;;;;4.07;2.70;;;;;;;22.76;75.92;95419.91;5036736;28;20228;-71
2022/08/15 08:00:16;;;;;;;6.50;3.38;;;;;;;23.07;74.85;95420.66;5037295;28;20661;-71
2022/08/15 08:02:49;;;;;;;7.18;2.80;;;;;;;23.18;73.13;95422.22;5036396;28;20213;-71
2022/08/15 08:05:16;;;;;;;7.00;2.75;;;;;;;23.24;73.35;95415.75;5036712;28;20221;-71
2022/08/15 08:07:46;;;;;;;7.30;2.90;;;;;;;23.61;72.59;95412.38;5036634;28;20591;-71
2022/08/15 08:10:18;;;;;;;2.60;1.48;;;;;;;23.60;66.16;95408.06;5036869;28;20237;-71
2022/08/15 08:12:53;;;;;;;6.22;2.22;;;;;;;23.53;66.57;95421.00;5035390;28;20573;-71
2022/08/15 08:15:24;;;;;;;5.07;1.98;;;;;;;23.42;66.68;95415.94;5036839;28;20717;-71
2022/08/15 08:18:01;;;;;;;2.30;1.48;;;;;;;23.32;65.97;95413.31;5036601;28;20265;-71
2022/08/15 08:20:36;;;;;;;4.57;2.15;;;;;;;23.50;66.87;95416.19;5037041;28;20209;-71
2022/08/15 08:23:07;;;;;;;4.68;2.28;;;;;;;23.63;66.70;95412.88;5035863;28;20212;-71
2022/08/15 08:25:40;;;;;;;4.30;2.17;;;;;;;24.01;65.50;95414.84;5037506;28;20327;-71
2022/08/15 08:28:28;;;;;;;3.95;2.10;;;;;;;24.03;63.79;95412.66;5035981;28;20729;-72
2022/08/15 08:31:03;;;;;;;5.65;2.25;;;;;;;24.03;64.40;95408.09;5036042;28;20646;-71
2022/08/15 08:33:43;;;;;;;2.00;1.65;;;;;;;24.26;63.72;95410.09;5034927;28;20692;-71
2022/08/15 08:36:21;;;;;;;2.58;1.70;;;;;;;24.18;62.85;95416.06;5036015;28;20209;-71
2022/08/15 08:38:56;;;;;;;4.68;2.00;;;;;;;24.04;61.88;95403.50;5036098;28;20232;-71
2022/08/15 08:41:36;;;;;;;3.80;2.20;;;;;;;24.31;62.22;95417.31;5036495;28;20669;-71
2022/08/15 08:44:11;;;;;;;2.67;2.00;;;;;;;24.39;61.54;95406.78;5033846;28;20225;-72
2022/08/15 08:46:55;;;;;;;6.60;1.80;;;;;;;24.55;60.10;95407.44;5035077;28;20223;-71
2022/08/15 08:49:34;;;;;;;5.10;2.20;;;;;;;24.72;60.70;95412.13;5036485;28;20209;-71
2022/08/15 08:52:05;;;;;;;4.43;1.77;;;;;;;24.83;60.03;95415.53;5035890;28;20582;-71
2022/08/15 08:54:43;;;;;;;3.10;1.80;;;;;;;24.93;58.02;95402.75;5032839;28;20717;-71
2022/08/15 08:57:16;;;;;;;2.60;1.80;;;;;;;25.01;57.49;95412.09;5036524;28;20225;-71
2022/08/15 08:59:50;;;;;;;3.78;2.00;;;;;;;25.08;56.68;95407.22;5035832;28;20216;-72
2022/08/15 09:02:21;;;;;;;3.92;1.88;;;;;;;25.24;57.53;95404.88;5036207;28;20209;-72
2022/08/15 09:04:54;;;;;;;3.13;1.92;;;;;;;25.51;57.98;95390.75;5036412;28;20227;-72
2022/08/15 09:07:26;;;;;;;5.13;2.00;;;;;;;25.76;57.16;95403.97;5035902;28;20220;-72
2022/08/15 09:09:55;;;;;;;3.67;2.08;;;;;;;25.66;55.57;95409.47;5034546;28;20228;-72
2022/08/15 09:15:14;;;;;;;3.13;1.55;;;;;;;25.18;54.24;95418.69;5035150;28;20240;-70
2022/08/15 09:17:44;;;;;;;2.45;1.70;;;;;;;25.31;53.38;95423.41;5033992;28;20221;-70
2022/08/15 09:20:15;;;;;;;2.60;1.50;;;;;;;25.07;54.98;95419.09;5035072;28;21114;-71
2022/08/15 09:22:42;;;;;;;2.67;1.65;;;;;;;25.39;54.44;95406.56;5032522;28;20205;-71
2022/08/15 09:25:10;;;;;;;2.28;1.65;;;;;;;25.76;53.92;95410.16;5034874;28;20925;-71
2022/08/15 09:27:45;;;;;;;3.70;2.00;;;;;;;26.22;52.76;95413.81;5039772;28;20205;-71
2022/08/15 09:30:13;;;;;;;3.58;1.60;;;;;;;26.07;52.38;95414.03;5039048;28;20201;-70
2022/08/15 09:32:59;;;;;;;5.93;1.90;;;;;;;25.68;52.83;95407.28;5037710;28;20205;-70
2022/08/15 09:35:53;;;;;;;3.45;1.50;;;;;;;25.96;52.76;95407.97;5039610;28;20228;-70
2022/08/15 09:38:39;;;;;;;2.80;1.90;;;;;;;26.32;52.54;95413.66;5037237;28;20239;-69
2022/08/15 09:41:34;;;;;;;3.03;1.88;;;;;;;25.90;50.65;95411.03;5038614;28;20211;-69
2022/08/15 09:44:26;;;;;;;4.07;1.80;;;;;;;25.85;50.88;95413.81;5038664;28;20233;-69
2022/08/15 09:47:12;;;;;;;2.08;1.35;;;;;;;26.27;49.40;95419.94;5037924;28;20201;-70
2022/08/15 09:50:04;;;;;;;3.63;1.92;;;;;;;26.64;51.04;95414.50;5038599;28;20213;-70
2022/08/15 09:52:40;;;;;;;2.33;1.25;;;;;;;26.35;49.86;95408.50;5038251;28;20312;-69
2022/08/15 09:55:23;;;;;;;2.50;1.60;;;;;;;26.00;49.38;95406.28;5037507;28;20224;-70
2022/08/15 09:57:52;;;;;;;1.95;1.58;;;;;;;25.96;48.79;95409.88;5038215;28;20225;-68
2022/08/15 10:00:34;;;;;;;2.38;1.80;;;;;;;26.10;49.22;95400.75;5038787;28;20193;-70
2022/08/15 10:03:06;;;;;;;1.80;1.40;;;;;;;26.26;49.28;95399.44;5037731;28;20288;-70
2022/08/15 10:05:44;;;;;;;2.58;1.40;;;;;;;26.27;48.45;95390.22;5040065;28;20221;-70
2022/08/15 10:08:14;;;;;;;1.77;1.40;;;;;;;26.26;48.25;95399.44;5040542;28;20251;-70
2022/08/15 10:10:52;;;;;;;3.70;1.85;;;;;;;26.50;47.80;95405.53;5039089;28;20960;-70
2022/08/15 10:13:47;;;;;;;2.70;1.80;;;;;;;26.95;48.82;95392.09;5039037;28;20216;-70
2022/08/15 10:16:46;;;;;;;7.20;3.85;;;;;;;27.55;48.11;95396.31;5037215;28;20205;-68
2022/08/15 10:19:30;;;;;;;3.72;2.70;;;;;;;27.49;45.95;95395.59;5036987;28;20752;-69
2022/08/15 10:22:00;;;;;;;3.70;1.90;;;;;;;27.38;44.67;95391.50;5035926;28;20311;-70
2022/08/15 10:24:33;;;;;;;6.40;1.17;;;;;;;27.25;45.04;95380.66;5037391;28;20247;-69
2022/08/15 10:27:23;;;;;;;2.33;1.30;;;;;;;27.28;46.03;95393.63;5038406;28;20236;-69
2022/08/15 10:30:08;;;;;;;3.53;2.08;;;;;;;27.30;46.71;95377.88;5022427;28;20209;-70
2022/08/15 10:32:41;;;;;;;7.13;2.03;;;;;;;27.71;45.05;95374.03;5037584;28;20359;-69
2022/08/15 10:35:16;;;;;;;3.58;2.75;;;;;;;27.90;45.47;95372.81;5037830;28;20228;-69
2022/08/15 10:37:51;;;;;;;2.40;1.85;;;;;;;28.16;45.59;95381.19;5037557;28;20992;-69
2022/08/15 10:40:40;;;;;;;3.60;1.75;;;;;;;27.85;44.58;95369.41;5038537;28;20201;-69
2022/08/15 10:43:28;;;;;;;3.28;1.50;;;;;;;28.10;43.21;95371.53;5037651;28;20220;-69
2022/08/15 10:45:59;;;;;;;2.30;1.70;;;;;;;27.90;43.75;95369.28;5038021;28;20224;-69
2022/08/15 10:48:43;;;;;;;2.03;1.60;;;;;;;28.07;43.34;95361.31;5039197;28;20228;-69
2022/08/15 10:51:27;;;;;;;2.92;1.70;;;;;;;28.02;46.19;95364.16;5038823;28;20216;-69
2022/08/15 10:54:09;;;;;;;2.88;1.75;;;;;;;28.21;44.77;95364.78;5037375;28;20229;-69
2022/08/15 10:56:39;;;;;;;2.42;1.65;;;;;;;28.40;43.57;95371.66;5038870;28;20263;-69
2022/08/15 10:59:10;;;;;;;2.90;1.63;;;;;;;27.94;43.15;95362.97;5038345;28;20235;-69
2022/08/15 11:01:39;;;;;;;4.05;1.90;;;;;;;28.28;44.89;95360.53;5038512;28;20210;-69
2022/08/15 11:04:09;;;;;;;2.58;1.90;;;;;;;28.12;45.99;95353.06;5037914;28;20233;-70
2022/08/15 11:06:42;;;;;;;3.22;1.58;;;;;;;28.55;45.12;95358.53;5038493;28;20216;-70
2022/08/15 11:09:14;;;;;;;3.20;1.70;;;;;;;28.70;42.89;95358.13;5038213;28;20209;-70
2022/08/15 11:11:52;;;;;;;3.42;1.52;;;;;;;29.02;41.59;95357.84;5038133;28;20205;-69
2022/08/15 11:14:24;;;;;;;1.95;1.60;;;;;;;29.10;41.54;95355.16;5037421;28;20434;-69
2022/08/15 11:16:52;;;;;;;3.15;2.00;;;;;;;29.08;42.80;95362.03;5038037;28;20300;-70
2022/08/15 11:19:22;;;;;;;2.83;1.70;;;;;;;29.27;41.95;95366.09;5037610;28;20231;-70
2022/08/15 11:21:52;;;;;;;4.68;2.75;;;;;;;28.95;42.60;95360.22;5038163;28;20621;-69
2022/08/15 11:24:27;;;;;;;2.80;2.05;;;;;;;29.03;41.50;95352.13;5037727;28;20233;-70
2022/08/15 11:27:10;;;;;;;4.38;1.48;;;;;;;29.38;44.12;95353.06;5037250;28;20201;-70
2022/08/15 11:29:37;;;;;;;1.95;1.60;;;;;;;28.75;43.80;95343.66;5038243;28;20216;-70
2022/08/15 11:32:04;;;;;;;1.98;1.38;;;;;;;29.14;41.02;95352.63;5037932;28;20983;-69
2022/08/15 11:34:35;;;;;;;4.28;1.90;;;;;;;29.30;41.95;95348.38;5037175;28;20225;-70
2022/08/15 11:37:09;;;;;;;3.05;1.80;;;;;;;29.35;42.21;95351.75;5037248;28;20201;-70
2022/08/15 11:39:39;;;;;;;2.80;1.70;;;;;;;29.48;41.84;95336.47;5037846;28;20229;-69
2022/08/15 11:42:11;;;;;;;4.82;1.80;;;;;;;29.91;41.33;95328.09;5036780;28;20220;-69
2022/08/15 11:44:42;;;;;;;2.28;1.70;;;;;;;29.85;39.36;95329.38;5036566;28;20227;-69
2022/08/15 11:47:14;;;;;;;3.72;1.77;;;;;;;29.42;40.32;95335.03;5036115;28;20267;-70
2022/08/15 11:49:48;;;;;;;3.13;1.80;;;;;;;29.41;40.57;95333.44;5036026;28;20193;-69
2022/08/15 11:52:23;;;;;;;3.90;1.83;;;;;;;29.07;40.06;95333.28;5037245;28;20213;-69
2022/08/15 11:55:19;;;;;;;3.80;2.10;;;;;;;29.01;40.09;95332.63;5036720;28;20318;-68
2022/08/15 11:57:49;;;;;;;2.45;1.77;;;;;;;28.72;43.09;95323.38;5036735;28;20205;-68
2022/08/15 12:00:25;;;;;;;2.60;1.70;;;;;;;28.97;41.55;95325.41;5037533;28;20213;-69